createdAt,value
2022-10-16T00:01:30.521Z,99771.94
2022-10-16T00:05:32.696Z,99763.56
2022-10-16T00:09:34.527Z,99770.84
2022-10-16T00:13:37.851Z,99771.53
2022-10-16T00:17:39.664Z,99784.44
2022-10-16T00:21:41.623Z,99803.84
2022-10-16T00:25:43.386Z,99788.97
2022-10-16T00:29:45.160Z,99804.28
2022-10-16T00:33:46.999Z,99797.75
2022-10-16T00:37:48.825Z,99789.47
2022-10-16T00:41:50.668Z,99802.84
2022-10-16T00:45:52.485Z,99795.50
2022-10-16T00:49:59.664Z,99818.22
2022-10-16T00:54:03.298Z,99811.63
2022-10-16T00:58:05.113Z,99811.84
2022-10-16T01:02:09.241Z,99806.28
2022-10-16T01:10:38.930Z,99809.16
2022-10-16T01:14:46.434Z,99795.69
2022-10-16T01:19:12.735Z,99798.41
2022-10-16T01:23:39.245Z,99800.72
2022-10-16T01:27:41.096Z,99806.47
2022-10-16T01:31:43.782Z,99813.53
2022-10-16T01:36:06.481Z,99814.34
2022-10-16T01:40:13.880Z,99817.03
2022-10-16T01:44:22.424Z,99823.38
2022-10-16T01:48:24.881Z,99820.00
2022-10-16T01:52:27.773Z,99806.19
2022-10-16T01:56:29.868Z,99798.19
2022-10-16T02:00:38.394Z,99787.06
2022-10-16T02:05:19.357Z,99821.03
2022-10-16T02:09:27.359Z,99813.06
2022-10-16T02:13:54.376Z,99826.47
2022-10-16T02:18:02.347Z,99819.47
2022-10-16T02:22:06.183Z,99816.28
2022-10-16T02:26:09.577Z,99805.00
2022-10-16T02:30:34.788Z,99811.31
2022-10-16T02:34:36.598Z,99808.63
2022-10-16T02:38:39.308Z,99795.31
2022-10-16T02:42:41.527Z,99811.06
2022-10-16T02:46:43.357Z,99798.78
2022-10-16T02:50:45.125Z,99791.69
2022-10-16T02:54:47.004Z,99804.53
2022-10-16T02:58:48.887Z,99794.03
2022-10-16T03:02:51.113Z,99802.41
2022-10-16T03:06:52.905Z,99785.03
2022-10-16T03:10:54.726Z,99790.78
2022-10-16T03:14:57.877Z,99803.25
2022-10-16T03:18:59.738Z,99818.19
2022-10-16T03:23:01.730Z,99836.13
2022-10-16T03:27:03.745Z,99826.56
2022-10-16T03:31:05.867Z,99830.94
2022-10-16T03:35:08.233Z,99838.53
2022-10-16T03:39:10.143Z,99820.81
2022-10-16T03:43:12.005Z,99840.44
2022-10-16T03:47:13.849Z,99832.75
2022-10-16T03:51:15.662Z,99836.25
2022-10-16T03:55:17.484Z,99834.03
2022-10-16T03:59:19.286Z,99846.47
2022-10-16T04:03:22.347Z,99844.72
2022-10-16T04:07:24.485Z,99860.09
2022-10-16T04:11:26.439Z,99861.00
2022-10-16T04:15:28.289Z,99861.38
2022-10-16T04:19:30.094Z,99872.38
2022-10-16T04:23:32.182Z,99893.72
2022-10-16T04:27:34.115Z,99887.22
2022-10-16T04:31:52.424Z,99865.72
2022-10-16T04:35:59.047Z,99867.56
2022-10-16T04:40:00.814Z,99882.91
2022-10-16T04:44:02.819Z,99882.34
2022-10-16T04:48:04.702Z,99882.25
2022-10-16T04:52:06.662Z,99883.53
2022-10-16T04:56:13.961Z,99885.41
2022-10-16T05:00:19.300Z,99881.19
2022-10-16T05:04:23.639Z,99892.31
2022-10-16T05:08:25.808Z,99893.75
2022-10-16T05:12:29.156Z,99886.84
2022-10-16T05:16:32.068Z,99864.31
2022-10-16T05:20:37.358Z,99881.66
2022-10-16T05:25:23.070Z,99891.78
2022-10-16T05:29:25.434Z,99893.97
2022-10-16T05:33:42.251Z,99906.47
2022-10-16T05:37:55.016Z,99893.22
2022-10-16T05:47:14.448Z,99898.72
2022-10-16T05:51:16.491Z,99912.47
2022-10-16T05:55:18.378Z,99926.19
2022-10-16T05:59:20.263Z,99931.41
2022-10-16T06:03:22.530Z,99922.06
2022-10-16T06:07:54.497Z,99908.25
2022-10-16T06:16:53.036Z,99913.94
2022-10-16T06:21:22.309Z,99941.22
2022-10-16T06:25:24.212Z,99938.69
2022-10-16T06:29:32.448Z,99942.75
2022-10-16T06:34:18.863Z,99943.50
2022-10-16T06:38:20.713Z,99951.50
2022-10-16T06:42:22.589Z,99956.00
2022-10-16T06:46:25.444Z,99953.38
2022-10-16T06:50:27.493Z,99953.47
2022-10-16T06:54:36.428Z,99948.44
2022-10-16T06:58:47.905Z,99953.69
2022-10-16T07:02:51.547Z,99949.19
2022-10-16T07:07:08.700Z,99949.72
2022-10-16T07:11:20.077Z,99946.81
2022-10-16T07:15:21.968Z,99952.47
2022-10-16T07:19:23.895Z,99954.81
2022-10-16T07:23:25.697Z,99971.59
2022-10-16T07:27:27.754Z,99997.38
2022-10-16T07:31:32.513Z,100003.53
2022-10-16T07:35:40.874Z,100013.72
2022-10-16T07:39:49.284Z,100017.88
2022-10-16T07:44:01.339Z,100014.22
2022-10-16T07:48:16.714Z,100022.38
2022-10-16T07:52:28.846Z,100022.25
2022-10-16T07:56:32.160Z,100021.19
2022-10-16T08:00:53.993Z,100018.84
2022-10-16T08:09:59.635Z,100002.25
2022-10-16T08:25:10.102Z,100018.28
2022-10-16T08:39:49.235Z,100019.50
2022-10-16T08:49:26.535Z,100010.63
2022-10-16T08:53:48.157Z,100002.09
2022-10-16T08:57:50.362Z,100011.50
2022-10-16T09:01:52.530Z,99983.31
2022-10-16T09:06:21.816Z,100000.06
2022-10-16T09:11:06.109Z,99983.31
2022-10-16T09:16:20.947Z,99993.28
2022-10-16T09:21:28.857Z,99987.41
2022-10-16T09:25:50.214Z,99995.44
2022-10-16T09:30:16.092Z,99996.72
2022-10-16T09:35:23.902Z,100001.81
2022-10-16T09:40:09.269Z,100011.66
2022-10-16T09:45:21.835Z,100005.44
2022-10-16T10:01:29.760Z,100010.09
2022-10-16T10:05:43.465Z,100013.50
2022-10-16T10:09:51.754Z,100015.19
2022-10-16T10:14:17.117Z,100021.56
2022-10-16T10:18:27.996Z,100030.88
2022-10-16T10:22:59.608Z,100032.69
2022-10-16T10:27:20.485Z,100029.22
2022-10-16T10:31:43.511Z,100023.41
2022-10-16T10:36:03.718Z,100032.38
2022-10-16T10:41:11.452Z,100038.63
2022-10-16T10:45:38.813Z,100032.38
2022-10-16T10:50:21.620Z,100042.97
2022-10-16T10:54:32.441Z,100047.84
2022-10-16T10:59:00.135Z,100040.69
2022-10-16T11:03:44.548Z,100045.53
2022-10-16T11:07:55.998Z,100032.09
2022-10-16T11:12:09.351Z,100031.00
2022-10-16T11:16:53.747Z,100043.22
2022-10-16T11:21:01.461Z,100034.66
2022-10-16T11:25:30.672Z,100044.72
2022-10-16T11:30:11.842Z,100042.09
2022-10-16T11:40:30.678Z,100051.44
2022-10-16T11:45:13.203Z,100052.75
2022-10-16T11:49:20.591Z,100061.00
2022-10-16T11:53:54.931Z,100056.22
2022-10-16T12:13:43.832Z,100061.31
2022-10-16T12:17:49.213Z,100060.16
2022-10-16T12:21:51.977Z,100066.84
2022-10-16T12:25:58.363Z,100053.84
2022-10-16T12:30:33.627Z,100067.78
2022-10-16T12:34:56.244Z,100086.25
2022-10-16T12:39:35.907Z,100065.69
2022-10-16T12:43:58.720Z,100073.03
2022-10-16T12:48:32.532Z,100086.03
2022-10-16T12:52:55.048Z,100077.47
2022-10-16T12:57:45.789Z,100090.19
2022-10-16T13:02:38.331Z,100086.22
2022-10-16T13:06:50.176Z,100080.06
2022-10-16T13:11:14.180Z,100087.47
2022-10-16T13:15:51.842Z,100102.50
2022-10-16T13:20:27.023Z,100087.38
2022-10-16T13:24:54.490Z,100089.69
2022-10-16T13:29:02.549Z,100084.59
2022-10-16T13:33:20.731Z,100077.25
2022-10-16T13:37:25.245Z,100092.75
2022-10-16T13:41:27.786Z,100084.81
2022-10-16T13:45:30.935Z,100101.22
2022-10-16T13:49:33.203Z,100103.34
2022-10-16T13:53:36.430Z,100117.69
2022-10-16T13:57:39.329Z,100110.38
2022-10-16T14:01:45.054Z,100119.88
2022-10-16T14:05:52.778Z,100112.72
2022-10-16T14:09:55.309Z,100118.28
2022-10-16T14:13:57.306Z,100124.63
2022-10-16T14:17:59.306Z,100128.25
2022-10-16T14:22:01.358Z,100136.47
2022-10-16T14:26:16.261Z,100135.06
2022-10-16T14:30:22.779Z,100121.09
2022-10-16T14:34:33.776Z,100132.06
2022-10-16T14:38:35.937Z,100122.41
2022-10-16T14:42:37.794Z,100129.00
2022-10-16T14:46:44.403Z,100128.66
2022-10-16T14:55:41.246Z,100134.00
2022-10-16T14:59:45.511Z,100145.53
2022-10-16T15:03:48.003Z,100158.34
2022-10-16T15:07:50.433Z,100165.72
2022-10-16T15:11:52.305Z,100168.63
2022-10-16T15:15:54.367Z,100161.91
2022-10-16T15:19:56.256Z,100170.56
2022-10-16T15:23:59.436Z,100176.56
2022-10-16T15:28:02.042Z,100177.69
2022-10-16T15:32:07.026Z,100187.47
2022-10-16T15:36:20.163Z,100184.84
2022-10-16T15:40:29.378Z,100197.22
2022-10-16T15:44:39.384Z,100204.63
2022-10-16T15:48:45.793Z,100210.22
2022-10-16T15:52:51.807Z,100200.22
2022-10-16T15:57:08.874Z,100218.31
2022-10-16T16:01:55.877Z,100212.63
2022-10-16T16:06:00.720Z,100222.94
2022-10-16T16:10:22.166Z,100226.22
2022-10-16T16:15:33.750Z,100238.59
2022-10-16T16:19:35.954Z,100229.19
2022-10-16T16:23:38.591Z,100236.34
2022-10-16T16:27:46.311Z,100242.91
2022-10-16T16:31:48.410Z,100266.00
2022-10-16T16:35:53.110Z,100269.84
2022-10-16T16:40:05.867Z,100291.28
2022-10-16T16:50:46.282Z,100304.25
2022-10-16T16:54:53.524Z,100320.03
2022-10-16T17:03:39.864Z,100348.06
2022-10-16T17:07:42.134Z,100341.00
2022-10-16T17:11:49.797Z,100357.59
2022-10-16T17:16:10.307Z,100358.19
2022-10-16T17:20:34.621Z,100361.84
2022-10-16T17:24:36.510Z,100371.88
2022-10-16T17:28:48.182Z,100386.44
2022-10-16T17:32:50.272Z,100377.81
2022-10-16T17:36:52.186Z,100370.78
2022-10-16T17:40:57.279Z,100379.22
2022-10-16T17:44:59.468Z,100409.25
2022-10-16T17:49:03.585Z,100419.41
2022-10-16T17:53:05.568Z,100419.22
2022-10-16T17:57:08.949Z,100424.94
2022-10-16T18:01:24.074Z,100429.25
2022-10-16T18:05:28.440Z,100435.72
2022-10-16T18:09:30.329Z,100442.66
2022-10-16T18:13:32.692Z,100445.97
2022-10-16T18:17:38.768Z,100452.72
2022-10-16T18:21:41.580Z,100442.66
2022-10-16T18:25:51.367Z,100454.44
2022-10-16T18:29:56.481Z,100462.28
2022-10-16T18:33:58.711Z,100477.97
2022-10-16T18:38:00.787Z,100486.53
2022-10-16T18:42:08.674Z,100481.91
2022-10-16T18:46:16.717Z,100481.91
2022-10-16T18:50:21.576Z,100484.41
2022-10-16T18:54:29.351Z,100479.59
2022-10-16T18:58:50.769Z,100476.63
2022-10-16T19:03:05.816Z,100475.56
2022-10-16T19:07:10.986Z,100493.59
2022-10-16T19:11:16.141Z,100497.94
2022-10-16T19:15:40.038Z,100493.84
2022-10-16T19:19:42.159Z,100491.50
2022-10-16T19:24:04.053Z,100491.50
2022-10-16T19:28:10.524Z,100511.69
2022-10-16T19:32:23.484Z,100511.38
2022-10-16T19:36:32.502Z,100510.81
2022-10-16T19:40:42.684Z,100519.63
2022-10-16T19:44:44.906Z,100505.72
2022-10-16T19:49:03.716Z,100536.78
2022-10-16T19:53:08.370Z,100542.44
2022-10-16T19:57:11.764Z,100533.91
2022-10-16T20:01:52.898Z,100534.59
2022-10-16T20:05:55.612Z,100543.06
2022-10-16T20:09:58.013Z,100527.69
2022-10-16T20:14:01.284Z,100536.13
2022-10-16T20:18:06.136Z,100514.41
2022-10-16T20:22:10.505Z,100525.41
2022-10-16T20:26:12.632Z,100538.94
2022-10-16T20:30:14.680Z,100535.88
2022-10-16T20:34:26.142Z,100557.13
2022-10-16T20:38:28.546Z,100554.06
2022-10-16T20:42:31.931Z,100543.63
2022-10-16T20:46:34.143Z,100538.28
2022-10-16T20:50:35.952Z,100549.44
2022-10-16T20:54:40.000Z,100559.47
2022-10-16T20:58:42.236Z,100552.19
2022-10-16T21:02:44.139Z,100542.66
2022-10-16T21:06:45.997Z,100567.78
2022-10-16T21:10:47.863Z,100593.78
2022-10-16T21:15:12.864Z,100605.19
2022-10-16T21:19:13.987Z,100597.66
2022-10-16T21:23:15.794Z,100617.19
2022-10-16T21:27:17.729Z,100616.84
2022-10-16T21:31:20.244Z,100592.91
2022-10-16T21:35:22.164Z,100629.25
2022-10-16T21:39:24.081Z,100638.97
2022-10-16T21:43:25.972Z,100669.31
2022-10-16T21:47:28.151Z,100648.56
2022-10-16T21:51:33.832Z,100630.09
2022-10-16T21:55:36.699Z,100642.47
2022-10-16T21:59:38.581Z,100649.22
2022-10-16T22:03:40.655Z,100655.81
2022-10-16T22:07:43.907Z,100648.38
2022-10-16T22:11:45.979Z,100621.72
2022-10-16T22:15:56.020Z,100622.50
2022-10-16T22:20:00.234Z,100641.94
2022-10-16T22:24:02.145Z,100644.91
2022-10-16T22:28:04.138Z,100642.13
2022-10-16T22:32:05.936Z,100652.66
2022-10-16T22:36:10.372Z,100669.75
2022-10-16T22:40:12.733Z,100670.28
2022-10-16T22:44:14.761Z,100662.06
2022-10-16T22:48:16.653Z,100663.38
2022-10-16T22:52:18.467Z,100651.78
2022-10-16T22:56:21.076Z,100655.72
2022-10-16T23:00:23.194Z,100655.41
2022-10-16T23:04:25.147Z,100653.38
2022-10-16T23:08:27.001Z,100667.88
2022-10-16T23:12:29.335Z,100656.81
2022-10-16T23:16:31.447Z,100674.28
2022-10-16T23:20:33.371Z,100669.16
2022-10-16T23:24:35.253Z,100679.09
2022-10-16T23:28:37.568Z,100668.88
2022-10-16T23:32:40.839Z,100682.69
2022-10-16T23:36:44.710Z,100679.75
2022-10-16T23:40:46.529Z,100683.66
2022-10-16T23:44:48.548Z,100687.56
2022-10-16T23:48:50.380Z,100683.91
2022-10-16T23:52:52.175Z,100687.88
2022-10-16T23:56:54.059Z,100686.19
